sensor_id;sensor_type;location;lat;lon;timestamp;P1;durP1;ratioP1;P2;durP2;ratioP2
61685;SDS011;47592;45.904;8.978;2022-12-07T00:03:53;15.38;;;9.30;;
61685;SDS011;47592;45.904;8.978;2022-12-07T00:06:22;15.18;;;9.07;;
61685;SDS011;47592;45.904;8.978;2022-12-07T00:08:47;14.68;;;9.40;;
61685;SDS011;47592;45.904;8.978;2022-12-07T00:11:14;16.77;;;9.18;;
61685;SDS011;47592;45.904;8.978;2022-12-07T00:13:41;15.55;;;9.40;;
61685;SDS011;47592;45.904;8.978;2022-12-07T00:16:08;23.20;;;12.73;;
61685;SDS011;47592;45.904;8.978;2022-12-07T00:18:58;22.15;;;11.50;;
61685;SDS011;47592;45.904;8.978;2022-12-07T00:21:25;22.77;;;12.73;;
61685;SDS011;47592;45.904;8.978;2022-12-07T00:23:55;19.90;;;11.98;;
61685;SDS011;47592;45.904;8.978;2022-12-07T00:26:23;23.40;;;12.45;;
61685;SDS011;47592;45.904;8.978;2022-12-07T00:28:59;20.23;;;11.20;;
61685;SDS011;47592;45.904;8.978;2022-12-07T00:31:27;17.75;;;10.82;;
61685;SDS011;47592;45.904;8.978;2022-12-07T00:33:54;18.58;;;10.70;;
61685;SDS011;47592;45.904;8.978;2022-12-07T00:36:22;18.38;;;9.85;;
61685;SDS011;47592;45.904;8.978;2022-12-07T00:38:48;15.00;;;9.80;;
61685;SDS011;47592;45.904;8.978;2022-12-07T00:41:15;18.42;;;9.18;;
61685;SDS011;47592;45.904;8.978;2022-12-07T00:43:43;16.92;;;9.52;;
61685;SDS011;47592;45.904;8.978;2022-12-07T00:46:09;17.02;;;9.43;;
61685;SDS011;47592;45.904;8.978;2022-12-07T00:48:35;17.33;;;9.80;;
61685;SDS011;47592;45.904;8.978;2022-12-07T00:51:01;19.88;;;10.85;;
61685;SDS011;47592;45.904;8.978;2022-12-07T00:53:27;23.70;;;10.55;;
61685;SDS011;47592;45.904;8.978;2022-12-07T00:55:53;17.60;;;9.43;;
61685;SDS011;47592;45.904;8.978;2022-12-07T00:58:19;15.77;;;8.98;;
61685;SDS011;47592;45.904;8.978;2022-12-07T01:00:44;16.52;;;7.97;;
61685;SDS011;47592;45.904;8.978;2022-12-07T01:03:11;12.73;;;7.43;;
61685;SDS011;47592;45.904;8.978;2022-12-07T01:05:38;14.68;;;7.97;;
61685;SDS011;47592;45.904;8.978;2022-12-07T01:08:04;15.35;;;7.80;;
61685;SDS011;47592;45.904;8.978;2022-12-07T01:10:30;14.45;;;7.03;;
61685;SDS011;47592;45.904;8.978;2022-12-07T01:12:56;12.30;;;6.55;;
61685;SDS011;47592;45.904;8.978;2022-12-07T01:15:22;9.65;;;5.80;;
61685;SDS011;47592;45.904;8.978;2022-12-07T01:17:48;9.35;;;5.45;;
61685;SDS011;47592;45.904;8.978;2022-12-07T01:20:13;9.85;;;5.53;;
61685;SDS011;47592;45.904;8.978;2022-12-07T01:22:41;8.23;;;4.90;;
61685;SDS011;47592;45.904;8.978;2022-12-07T01:25:07;11.30;;;5.40;;
61685;SDS011;47592;45.904;8.978;2022-12-07T01:27:33;8.38;;;5.13;;
61685;SDS011;47592;45.904;8.978;2022-12-07T01:29:59;8.18;;;5.25;;
61685;SDS011;47592;45.904;8.978;2022-12-07T01:32:25;8.07;;;5.45;;
61685;SDS011;47592;45.904;8.978;2022-12-07T01:34:50;9.52;;;4.85;;
61685;SDS011;47592;45.904;8.978;2022-12-07T01:37:16;7.28;;;4.88;;
61685;SDS011;47592;45.904;8.978;2022-12-07T01:39:41;9.38;;;5.00;;
61685;SDS011;47592;45.904;8.978;2022-12-07T01:42:10;8.05;;;4.68;;
61685;SDS011;47592;45.904;8.978;2022-12-07T01:47:40;8.45;;;4.78;;
61685;SDS011;47592;45.904;8.978;2022-12-07T01:50:06;7.65;;;4.55;;
61685;SDS011;47592;45.904;8.978;2022-12-07T01:52:32;8.65;;;4.90;;
61685;SDS011;47592;45.904;8.978;2022-12-07T01:54:59;8.70;;;4.95;;
61685;SDS011;47592;45.904;8.978;2022-12-07T01:57:28;8.23;;;4.60;;
61685;SDS011;47592;45.904;8.978;2022-12-07T01:59:54;7.95;;;4.65;;
61685;SDS011;47592;45.904;8.978;2022-12-07T02:02:23;8.57;;;4.88;;
61685;SDS011;47592;45.904;8.978;2022-12-07T02:04:52;8.02;;;4.95;;
61685;SDS011;47592;45.904;8.978;2022-12-07T02:07:18;8.88;;;4.93;;
61685;SDS011;47592;45.904;8.978;2022-12-07T02:09:45;7.35;;;4.18;;
61685;SDS011;47592;45.904;8.978;2022-12-07T02:12:11;7.22;;;4.43;;
61685;SDS011;47592;45.904;8.978;2022-12-07T02:14:36;9.68;;;4.70;;
61685;SDS011;47592;45.904;8.978;2022-12-07T02:20:03;8.48;;;4.20;;
61685;SDS011;47592;45.904;8.978;2022-12-07T02:28:12;5.88;;;3.22;;
61685;SDS011;47592;45.904;8.978;2022-12-07T02:30:46;7.45;;;4.18;;
61685;SDS011;47592;45.904;8.978;2022-12-07T02:35:55;8.70;;;4.40;;
61685;SDS011;47592;45.904;8.978;2022-12-07T02:41:02;8.82;;;4.57;;
61685;SDS011;47592;45.904;8.978;2022-12-07T02:43:31;8.07;;;4.28;;
61685;SDS011;47592;45.904;8.978;2022-12-07T02:46:01;7.00;;;4.13;;
61685;SDS011;47592;45.904;8.978;2022-12-07T02:48:29;7.70;;;4.32;;
61685;SDS011;47592;45.904;8.978;2022-12-07T02:50:57;6.72;;;4.22;;
61685;SDS011;47592;45.904;8.978;2022-12-07T03:01:43;7.80;;;4.00;;
61685;SDS011;47592;45.904;8.978;2022-12-07T03:10:13;7.13;;;3.67;;
61685;SDS011;47592;45.904;8.978;2022-12-07T03:15:19;6.65;;;3.80;;
61685;SDS011;47592;45.904;8.978;2022-12-07T03:17:49;7.00;;;3.80;;
61685;SDS011;47592;45.904;8.978;2022-12-07T03:20:17;6.70;;;3.67;;
61685;SDS011;47592;45.904;8.978;2022-12-07T03:22:44;7.85;;;4.38;;
61685;SDS011;47592;45.904;8.978;2022-12-07T03:25:11;6.32;;;3.58;;
61685;SDS011;47592;45.904;8.978;2022-12-07T03:27:41;6.97;;;3.80;;
61685;SDS011;47592;45.904;8.978;2022-12-07T03:30:08;7.03;;;3.90;;
61685;SDS011;47592;45.904;8.978;2022-12-07T03:32:39;7.15;;;3.50;;
61685;SDS011;47592;45.904;8.978;2022-12-07T03:37:54;6.75;;;3.17;;
61685;SDS011;47592;45.904;8.978;2022-12-07T03:40:43;7.03;;;3.72;;
61685;SDS011;47592;45.904;8.978;2022-12-07T03:43:15;6.30;;;3.08;;
61685;SDS011;47592;45.904;8.978;2022-12-07T03:45:43;8.02;;;3.30;;
61685;SDS011;47592;45.904;8.978;2022-12-07T03:53:59;6.95;;;3.22;;
61685;SDS011;47592;45.904;8.978;2022-12-07T03:56:30;6.70;;;3.40;;
61685;SDS011;47592;45.904;8.978;2022-12-07T03:58:56;6.07;;;3.22;;
61685;SDS011;47592;45.904;8.978;2022-12-07T04:01:22;6.80;;;3.40;;
61685;SDS011;47592;45.904;8.978;2022-12-07T04:03:48;6.47;;;2.97;;
61685;SDS011;47592;45.904;8.978;2022-12-07T04:06:13;5.40;;;3.13;;
61685;SDS011;47592;45.904;8.978;2022-12-07T04:08:39;6.38;;;3.25;;
61685;SDS011;47592;45.904;8.978;2022-12-07T04:11:04;5.43;;;2.90;;
61685;SDS011;47592;45.904;8.978;2022-12-07T04:13:30;6.70;;;3.33;;
61685;SDS011;47592;45.904;8.978;2022-12-07T04:16:15;6.43;;;3.15;;
61685;SDS011;47592;45.904;8.978;2022-12-07T04:18:40;6.70;;;3.55;;
61685;SDS011;47592;45.904;8.978;2022-12-07T04:21:06;6.53;;;3.75;;
61685;SDS011;47592;45.904;8.978;2022-12-07T04:23:31;6.07;;;3.50;;
61685;SDS011;47592;45.904;8.978;2022-12-07T04:25:57;6.18;;;2.70;;
61685;SDS011;47592;45.904;8.978;2022-12-07T04:28:22;5.75;;;3.03;;
61685;SDS011;47592;45.904;8.978;2022-12-07T04:30:48;6.25;;;3.65;;
61685;SDS011;47592;45.904;8.978;2022-12-07T04:33:13;6.25;;;3.05;;
61685;SDS011;47592;45.904;8.978;2022-12-07T04:35:38;6.85;;;3.22;;
61685;SDS011;47592;45.904;8.978;2022-12-07T04:38:04;5.78;;;2.97;;
61685;SDS011;47592;45.904;8.978;2022-12-07T04:40:29;6.25;;;3.10;;
61685;SDS011;47592;45.904;8.978;2022-12-07T04:42:55;6.32;;;2.80;;
61685;SDS011;47592;45.904;8.978;2022-12-07T04:45:20;5.18;;;2.83;;
61685;SDS011;47592;45.904;8.978;2022-12-07T04:47:45;6.57;;;3.40;;
61685;SDS011;47592;45.904;8.978;2022-12-07T04:50:11;5.80;;;3.25;;
61685;SDS011;47592;45.904;8.978;2022-12-07T04:52:36;5.97;;;2.95;;
61685;SDS011;47592;45.904;8.978;2022-12-07T04:55:02;5.45;;;2.88;;
61685;SDS011;47592;45.904;8.978;2022-12-07T04:57:27;5.72;;;2.92;;
61685;SDS011;47592;45.904;8.978;2022-12-07T04:59:53;5.55;;;2.70;;
61685;SDS011;47592;45.904;8.978;2022-12-07T05:02:18;5.30;;;2.72;;
61685;SDS011;47592;45.904;8.978;2022-12-07T05:04:44;5.28;;;2.80;;
61685;SDS011;47592;45.904;8.978;2022-12-07T05:07:09;5.50;;;2.70;;
61685;SDS011;47592;45.904;8.978;2022-12-07T05:09:35;5.30;;;2.70;;
61685;SDS011;47592;45.904;8.978;2022-12-07T05:12:00;5.70;;;2.80;;
61685;SDS011;47592;45.904;8.978;2022-12-07T05:14:25;5.53;;;2.60;;
61685;SDS011;47592;45.904;8.978;2022-12-07T05:16:51;5.60;;;2.72;;
61685;SDS011;47592;45.904;8.978;2022-12-07T05:19:18;7.35;;;2.42;;
61685;SDS011;47592;45.904;8.978;2022-12-07T05:21:44;5.25;;;2.35;;
61685;SDS011;47592;45.904;8.978;2022-12-07T05:24:10;5.13;;;2.40;;
61685;SDS011;47592;45.904;8.978;2022-12-07T05:26:37;6.25;;;3.08;;
61685;SDS011;47592;45.904;8.978;2022-12-07T05:29:03;5.63;;;2.85;;
61685;SDS011;47592;45.904;8.978;2022-12-07T05:31:29;4.97;;;2.60;;
61685;SDS011;47592;45.904;8.978;2022-12-07T05:33:54;4.90;;;2.33;;
61685;SDS011;47592;45.904;8.978;2022-12-07T05:36:20;8.00;;;2.80;;
61685;SDS011;47592;45.904;8.978;2022-12-07T05:38:45;6.40;;;2.95;;
61685;SDS011;47592;45.904;8.978;2022-12-07T05:41:14;6.18;;;3.30;;
61685;SDS011;47592;45.904;8.978;2022-12-07T05:44:03;5.80;;;2.90;;
61685;SDS011;47592;45.904;8.978;2022-12-07T05:46:29;6.43;;;2.67;;
61685;SDS011;47592;45.904;8.978;2022-12-07T05:48:54;5.88;;;3.00;;
61685;SDS011;47592;45.904;8.978;2022-12-07T05:51:20;6.32;;;3.17;;
61685;SDS011;47592;45.904;8.978;2022-12-07T05:53:45;6.97;;;3.20;;
61685;SDS011;47592;45.904;8.978;2022-12-07T05:56:11;7.18;;;3.20;;
61685;SDS011;47592;45.904;8.978;2022-12-07T05:58:37;5.95;;;2.72;;
61685;SDS011;47592;45.904;8.978;2022-12-07T06:01:20;9.23;;;3.60;;
61685;SDS011;47592;45.904;8.978;2022-12-07T06:03:46;6.35;;;3.38;;
61685;SDS011;47592;45.904;8.978;2022-12-07T06:06:11;6.50;;;3.20;;
61685;SDS011;47592;45.904;8.978;2022-12-07T06:08:37;6.00;;;3.13;;
61685;SDS011;47592;45.904;8.978;2022-12-07T06:11:02;6.75;;;3.42;;
61685;SDS011;47592;45.904;8.978;2022-12-07T06:13:57;8.82;;;4.18;;
61685;SDS011;47592;45.904;8.978;2022-12-07T06:16:22;6.82;;;4.18;;
61685;SDS011;47592;45.904;8.978;2022-12-07T06:18:48;9.15;;;4.22;;
61685;SDS011;47592;45.904;8.978;2022-12-07T06:21:13;9.77;;;5.10;;
61685;SDS011;47592;45.904;8.978;2022-12-07T06:23:39;9.50;;;5.22;;
61685;SDS011;47592;45.904;8.978;2022-12-07T06:26:05;9.90;;;5.72;;
61685;SDS011;47592;45.904;8.978;2022-12-07T06:28:30;11.57;;;5.72;;
61685;SDS011;47592;45.904;8.978;2022-12-07T06:30:59;12.73;;;5.90;;
61685;SDS011;47592;45.904;8.978;2022-12-07T06:35:51;10.13;;;5.40;;
61685;SDS011;47592;45.904;8.978;2022-12-07T06:38:16;9.35;;;5.38;;
61685;SDS011;47592;45.904;8.978;2022-12-07T06:40:42;9.00;;;4.78;;
61685;SDS011;47592;45.904;8.978;2022-12-07T06:43:07;8.88;;;4.97;;
61685;SDS011;47592;45.904;8.978;2022-12-07T06:45:33;9.60;;;5.50;;
61685;SDS011;47592;45.904;8.978;2022-12-07T06:47:58;9.50;;;5.65;;
61685;SDS011;47592;45.904;8.978;2022-12-07T06:50:24;7.50;;;4.85;;
61685;SDS011;47592;45.904;8.978;2022-12-07T06:52:50;10.52;;;5.47;;
61685;SDS011;47592;45.904;8.978;2022-12-07T06:55:16;9.55;;;5.10;;
61685;SDS011;47592;45.904;8.978;2022-12-07T06:57:41;10.88;;;5.90;;
61685;SDS011;47592;45.904;8.978;2022-12-07T07:00:07;10.23;;;4.97;;
61685;SDS011;47592;45.904;8.978;2022-12-07T07:02:32;9.52;;;4.88;;
61685;SDS011;47592;45.904;8.978;2022-12-07T07:04:58;9.60;;;4.60;;
61685;SDS011;47592;45.904;8.978;2022-12-07T07:07:23;9.20;;;4.95;;
61685;SDS011;47592;45.904;8.978;2022-12-07T07:09:49;8.48;;;4.80;;
61685;SDS011;47592;45.904;8.978;2022-12-07T07:12:14;8.48;;;4.88;;
61685;SDS011;47592;45.904;8.978;2022-12-07T07:14:39;8.75;;;4.57;;
61685;SDS011;47592;45.904;8.978;2022-12-07T07:17:05;10.43;;;5.00;;
61685;SDS011;47592;45.904;8.978;2022-12-07T07:19:30;8.60;;;4.50;;
61685;SDS011;47592;45.904;8.978;2022-12-07T07:21:56;7.85;;;4.32;;
61685;SDS011;47592;45.904;8.978;2022-12-07T07:24:21;10.07;;;4.63;;
61685;SDS011;47592;45.904;8.978;2022-12-07T07:26:47;12.02;;;4.78;;
61685;SDS011;47592;45.904;8.978;2022-12-07T07:29:12;8.65;;;4.07;;
61685;SDS011;47592;45.904;8.978;2022-12-07T07:31:37;9.07;;;4.18;;
61685;SDS011;47592;45.904;8.978;2022-12-07T07:34:03;7.13;;;3.47;;
61685;SDS011;47592;45.904;8.978;2022-12-07T07:36:29;7.25;;;3.75;;
61685;SDS011;47592;45.904;8.978;2022-12-07T07:38:54;5.28;;;2.42;;
61685;SDS011;47592;45.904;8.978;2022-12-07T07:41:20;5.47;;;2.58;;
61685;SDS011;47592;45.904;8.978;2022-12-07T07:43:45;5.32;;;2.40;;
61685;SDS011;47592;45.904;8.978;2022-12-07T07:46:10;4.90;;;2.35;;
61685;SDS011;47592;45.904;8.978;2022-12-07T07:48:36;5.97;;;2.60;;
61685;SDS011;47592;45.904;8.978;2022-12-07T07:51:04;5.07;;;2.75;;
61685;SDS011;47592;45.904;8.978;2022-12-07T07:53:31;4.95;;;2.47;;
61685;SDS011;47592;45.904;8.978;2022-12-07T07:55:57;5.00;;;2.10;;
61685;SDS011;47592;45.904;8.978;2022-12-07T07:58:23;6.00;;;2.78;;
61685;SDS011;47592;45.904;8.978;2022-12-07T08:00:48;4.97;;;2.25;;
61685;SDS011;47592;45.904;8.978;2022-12-07T08:03:14;4.95;;;2.17;;
61685;SDS011;47592;45.904;8.978;2022-12-07T08:05:40;4.95;;;2.25;;
61685;SDS011;47592;45.904;8.978;2022-12-07T08:08:05;6.05;;;2.72;;
61685;SDS011;47592;45.904;8.978;2022-12-07T08:10:30;5.65;;;2.38;;
61685;SDS011;47592;45.904;8.978;2022-12-07T08:12:57;5.38;;;2.20;;
61685;SDS011;47592;45.904;8.978;2022-12-07T08:15:40;6.13;;;2.17;;
61685;SDS011;47592;45.904;8.978;2022-12-07T08:18:06;4.75;;;2.38;;
61685;SDS011;47592;45.904;8.978;2022-12-07T08:20:32;6.40;;;2.13;;
61685;SDS011;47592;45.904;8.978;2022-12-07T08:22:59;5.40;;;2.40;;
61685;SDS011;47592;45.904;8.978;2022-12-07T08:25:24;5.80;;;2.42;;
61685;SDS011;47592;45.904;8.978;2022-12-07T08:27:51;5.28;;;2.15;;
61685;SDS011;47592;45.904;8.978;2022-12-07T08:30:16;5.18;;;2.30;;
61685;SDS011;47592;45.904;8.978;2022-12-07T08:32:43;5.85;;;2.40;;
61685;SDS011;47592;45.904;8.978;2022-12-07T08:35:09;5.47;;;2.42;;
61685;SDS011;47592;45.904;8.978;2022-12-07T08:37:35;4.95;;;2.58;;
61685;SDS011;47592;45.904;8.978;2022-12-07T08:40:00;8.43;;;2.80;;
61685;SDS011;47592;45.904;8.978;2022-12-07T08:42:25;5.47;;;2.55;;
61685;SDS011;47592;45.904;8.978;2022-12-07T08:44:55;5.53;;;2.33;;
61685;SDS011;47592;45.904;8.978;2022-12-07T08:47:22;6.40;;;2.90;;
61685;SDS011;47592;45.904;8.978;2022-12-07T08:49:48;5.45;;;2.65;;
61685;SDS011;47592;45.904;8.978;2022-12-07T08:52:14;6.28;;;2.47;;
61685;SDS011;47592;45.904;8.978;2022-12-07T08:54:40;7.57;;;2.47;;
61685;SDS011;47592;45.904;8.978;2022-12-07T08:57:06;5.88;;;2.50;;
61685;SDS011;47592;45.904;8.978;2022-12-07T08:59:32;8.73;;;2.63;;
61685;SDS011;47592;45.904;8.978;2022-12-07T09:01:59;9.50;;;3.80;;
61685;SDS011;47592;45.904;8.978;2022-12-07T09:04:24;10.07;;;3.15;;
61685;SDS011;47592;45.904;8.978;2022-12-07T09:06:49;9.20;;;2.70;;
61685;SDS011;47592;45.904;8.978;2022-12-07T09:09:15;8.52;;;2.38;;
61685;SDS011;47592;45.904;8.978;2022-12-07T09:11:41;5.22;;;2.47;;
61685;SDS011;47592;45.904;8.978;2022-12-07T09:14:06;7.00;;;3.05;;
61685;SDS011;47592;45.904;8.978;2022-12-07T09:16:32;9.35;;;3.92;;
61685;SDS011;47592;45.904;8.978;2022-12-07T09:18:57;7.03;;;3.38;;
61685;SDS011;47592;45.904;8.978;2022-12-07T09:21:22;10.70;;;5.18;;
61685;SDS011;47592;45.904;8.978;2022-12-07T09:23:48;8.85;;;4.32;;
61685;SDS011;47592;45.904;8.978;2022-12-07T09:26:13;5.88;;;2.88;;
61685;SDS011;47592;45.904;8.978;2022-12-07T09:28:39;6.40;;;3.13;;
61685;SDS011;47592;45.904;8.978;2022-12-07T09:31:04;7.82;;;3.53;;
61685;SDS011;47592;45.904;8.978;2022-12-07T09:33:30;6.72;;;3.10;;
61685;SDS011;47592;45.904;8.978;2022-12-07T09:35:55;6.40;;;3.10;;
61685;SDS011;47592;45.904;8.978;2022-12-07T09:38:21;5.35;;;2.42;;
61685;SDS011;47592;45.904;8.978;2022-12-07T09:40:46;6.93;;;2.60;;
61685;SDS011;47592;45.904;8.978;2022-12-07T09:43:13;5.68;;;2.40;;
61685;SDS011;47592;45.904;8.978;2022-12-07T09:45:41;6.25;;;3.00;;
61685;SDS011;47592;45.904;8.978;2022-12-07T09:48:14;5.55;;;2.67;;
61685;SDS011;47592;45.904;8.978;2022-12-07T09:50:43;5.47;;;2.35;;
61685;SDS011;47592;45.904;8.978;2022-12-07T09:53:20;6.43;;;2.33;;
61685;SDS011;47592;45.904;8.978;2022-12-07T09:55:49;6.03;;;1.80;;
61685;SDS011;47592;45.904;8.978;2022-12-07T09:58:24;4.82;;;1.83;;
61685;SDS011;47592;45.904;8.978;2022-12-07T10:00:53;4.10;;;1.73;;
61685;SDS011;47592;45.904;8.978;2022-12-07T10:03:22;5.07;;;1.60;;
61685;SDS011;47592;45.904;8.978;2022-12-07T10:05:49;5.80;;;1.83;;
61685;SDS011;47592;45.904;8.978;2022-12-07T10:08:15;4.00;;;1.70;;
61685;SDS011;47592;45.904;8.978;2022-12-07T10:10:42;4.03;;;1.77;;
61685;SDS011;47592;45.904;8.978;2022-12-07T10:13:08;6.18;;;1.90;;
61685;SDS011;47592;45.904;8.978;2022-12-07T10:15:54;5.35;;;2.10;;
61685;SDS011;47592;45.904;8.978;2022-12-07T10:21:16;4.80;;;1.85;;
61685;SDS011;47592;45.904;8.978;2022-12-07T10:24:01;5.80;;;1.95;;
61685;SDS011;47592;45.904;8.978;2022-12-07T10:26:34;5.88;;;2.15;;
61685;SDS011;47592;45.904;8.978;2022-12-07T10:29:04;4.63;;;1.80;;
61685;SDS011;47592;45.904;8.978;2022-12-07T10:31:44;7.55;;;1.73;;
61685;SDS011;47592;45.904;8.978;2022-12-07T10:34:22;4.50;;;1.55;;
61685;SDS011;47592;45.904;8.978;2022-12-07T10:37:06;4.53;;;1.40;;
61685;SDS011;47592;45.904;8.978;2022-12-07T10:39:51;4.15;;;1.60;;
61685;SDS011;47592;45.904;8.978;2022-12-07T10:42:22;3.70;;;1.40;;
61685;SDS011;47592;45.904;8.978;2022-12-07T10:44:49;5.07;;;1.52;;
61685;SDS011;47592;45.904;8.978;2022-12-07T10:55:52;5.28;;;1.17;;
61685;SDS011;47592;45.904;8.978;2022-12-07T10:58:55;4.80;;;1.38;;
61685;SDS011;47592;45.904;8.978;2022-12-07T11:04:43;4.70;;;1.77;;
61685;SDS011;47592;45.904;8.978;2022-12-07T11:18:11;3.92;;;1.50;;
61685;SDS011;47592;45.904;8.978;2022-12-07T11:21:48;5.20;;;1.75;;
61685;SDS011;47592;45.904;8.978;2022-12-07T11:26:44;4.38;;;1.77;;
61685;SDS011;47592;45.904;8.978;2022-12-07T11:34:39;5.57;;;1.70;;
61685;SDS011;47592;45.904;8.978;2022-12-07T11:37:12;4.45;;;1.88;;
61685;SDS011;47592;45.904;8.978;2022-12-07T11:42:21;4.03;;;1.48;;
61685;SDS011;47592;45.904;8.978;2022-12-07T11:44:55;3.90;;;1.40;;
61685;SDS011;47592;45.904;8.978;2022-12-07T11:53:09;3.78;;;1.20;;
61685;SDS011;47592;45.904;8.978;2022-12-07T12:03:43;3.78;;;1.52;;
61685;SDS011;47592;45.904;8.978;2022-12-07T12:06:11;4.32;;;1.63;;
61685;SDS011;47592;45.904;8.978;2022-12-07T12:08:39;6.47;;;2.00;;
61685;SDS011;47592;45.904;8.978;2022-12-07T12:22:34;4.75;;;2.08;;
61685;SDS011;47592;45.904;8.978;2022-12-07T12:25:05;5.55;;;2.17;;
61685;SDS011;47592;45.904;8.978;2022-12-07T12:27:36;6.50;;;2.53;;
61685;SDS011;47592;45.904;8.978;2022-12-07T12:32:40;4.68;;;2.20;;
61685;SDS011;47592;45.904;8.978;2022-12-07T12:35:21;6.45;;;2.05;;
61685;SDS011;47592;45.904;8.978;2022-12-07T12:37:53;5.30;;;2.20;;
61685;SDS011;47592;45.904;8.978;2022-12-07T12:42:55;6.20;;;2.90;;
61685;SDS011;47592;45.904;8.978;2022-12-07T12:45:31;5.45;;;2.40;;
61685;SDS011;47592;45.904;8.978;2022-12-07T12:48:00;6.47;;;2.90;;
61685;SDS011;47592;45.904;8.978;2022-12-07T12:50:36;6.72;;;3.10;;
61685;SDS011;47592;45.904;8.978;2022-12-07T12:53:24;6.90;;;2.90;;
61685;SDS011;47592;45.904;8.978;2022-12-07T12:58:48;6.28;;;2.92;;
61685;SDS011;47592;45.904;8.978;2022-12-07T13:03:55;5.85;;;2.92;;
61685;SDS011;47592;45.904;8.978;2022-12-07T13:08:50;6.43;;;3.17;;
61685;SDS011;47592;45.904;8.978;2022-12-07T13:13:43;8.27;;;3.50;;
61685;SDS011;47592;45.904;8.978;2022-12-07T13:20:59;6.45;;;3.33;;
61685;SDS011;47592;45.904;8.978;2022-12-07T13:23:38;7.65;;;3.63;;
61685;SDS011;47592;45.904;8.978;2022-12-07T13:26:18;8.02;;;3.35;;
61685;SDS011;47592;45.904;8.978;2022-12-07T13:31:36;7.68;;;3.00;;
61685;SDS011;47592;45.904;8.978;2022-12-07T13:34:03;5.70;;;2.83;;
61685;SDS011;47592;45.904;8.978;2022-12-07T13:36:33;7.40;;;3.08;;
61685;SDS011;47592;45.904;8.978;2022-12-07T13:39:18;7.50;;;3.30;;
61685;SDS011;47592;45.904;8.978;2022-12-07T13:41:51;7.38;;;3.38;;
61685;SDS011;47592;45.904;8.978;2022-12-07T13:44:18;6.18;;;3.28;;
61685;SDS011;47592;45.904;8.978;2022-12-07T13:49:32;6.65;;;3.08;;
61685;SDS011;47592;45.904;8.978;2022-12-07T13:54:45;5.55;;;2.72;;
61685;SDS011;47592;45.904;8.978;2022-12-07T13:57:12;8.48;;;3.35;;
61685;SDS011;47592;45.904;8.978;2022-12-07T13:59:38;7.28;;;3.00;;
61685;SDS011;47592;45.904;8.978;2022-12-07T14:02:16;6.50;;;3.40;;
61685;SDS011;47592;45.904;8.978;2022-12-07T14:04:45;6.47;;;3.10;;
61685;SDS011;47592;45.904;8.978;2022-12-07T14:10:22;6.50;;;3.40;;
61685;SDS011;47592;45.904;8.978;2022-12-07T14:12:47;5.80;;;3.17;;
61685;SDS011;47592;45.904;8.978;2022-12-07T14:15:20;6.47;;;3.55;;
61685;SDS011;47592;45.904;8.978;2022-12-07T14:17:51;6.82;;;3.97;;
61685;SDS011;47592;45.904;8.978;2022-12-07T14:22:56;8.60;;;4.18;;
61685;SDS011;47592;45.904;8.978;2022-12-07T14:25:25;11.93;;;5.53;;
61685;SDS011;47592;45.904;8.978;2022-12-07T14:27:53;12.60;;;6.53;;
61685;SDS011;47592;45.904;8.978;2022-12-07T14:30:24;11.65;;;5.90;;
61685;SDS011;47592;45.904;8.978;2022-12-07T14:32:58;11.50;;;6.05;;
61685;SDS011;47592;45.904;8.978;2022-12-07T14:35:26;10.15;;;5.93;;
61685;SDS011;47592;45.904;8.978;2022-12-07T14:37:53;9.90;;;5.97;;
61685;SDS011;47592;45.904;8.978;2022-12-07T14:40:20;9.20;;;5.57;;
61685;SDS011;47592;45.904;8.978;2022-12-07T14:42:47;9.82;;;6.30;;
61685;SDS011;47592;45.904;8.978;2022-12-07T14:45:16;10.25;;;6.45;;
61685;SDS011;47592;45.904;8.978;2022-12-07T14:47:44;9.70;;;6.50;;
61685;SDS011;47592;45.904;8.978;2022-12-07T14:50:14;9.52;;;5.97;;
61685;SDS011;47592;45.904;8.978;2022-12-07T14:52:41;8.95;;;6.03;;
61685;SDS011;47592;45.904;8.978;2022-12-07T14:55:12;10.23;;;6.07;;
61685;SDS011;47592;45.904;8.978;2022-12-07T14:57:51;9.55;;;5.90;;
61685;SDS011;47592;45.904;8.978;2022-12-07T15:00:17;11.93;;;6.85;;
61685;SDS011;47592;45.904;8.978;2022-12-07T15:02:46;10.35;;;5.85;;
61685;SDS011;47592;45.904;8.978;2022-12-07T15:05:12;9.90;;;6.10;;
61685;SDS011;47592;45.904;8.978;2022-12-07T15:07:38;9.13;;;5.93;;
61685;SDS011;47592;45.904;8.978;2022-12-07T15:10:04;9.13;;;5.60;;
61685;SDS011;47592;45.904;8.978;2022-12-07T15:12:30;10.48;;;6.50;;
61685;SDS011;47592;45.904;8.978;2022-12-07T15:14:55;12.45;;;6.20;;
61685;SDS011;47592;45.904;8.978;2022-12-07T15:17:21;9.48;;;6.07;;
61685;SDS011;47592;45.904;8.978;2022-12-07T15:19:46;9.07;;;5.93;;
61685;SDS011;47592;45.904;8.978;2022-12-07T15:22:12;12.45;;;7.10;;
61685;SDS011;47592;45.904;8.978;2022-12-07T15:24:37;12.27;;;8.00;;
61685;SDS011;47592;45.904;8.978;2022-12-07T15:27:03;13.52;;;8.13;;
61685;SDS011;47592;45.904;8.978;2022-12-07T15:29:29;13.18;;;8.25;;
61685;SDS011;47592;45.904;8.978;2022-12-07T15:31:55;13.13;;;8.20;;
61685;SDS011;47592;45.904;8.978;2022-12-07T15:34:20;14.50;;;7.40;;
61685;SDS011;47592;45.904;8.978;2022-12-07T15:36:46;12.63;;;7.70;;
61685;SDS011;47592;45.904;8.978;2022-12-07T15:39:11;14.07;;;7.50;;
61685;SDS011;47592;45.904;8.978;2022-12-07T15:41:37;12.65;;;6.78;;
61685;SDS011;47592;45.904;8.978;2022-12-07T15:44:03;11.43;;;7.47;;
61685;SDS011;47592;45.904;8.978;2022-12-07T15:46:47;12.10;;;8.13;;
61685;SDS011;47592;45.904;8.978;2022-12-07T15:49:13;14.70;;;8.40;;
61685;SDS011;47592;45.904;8.978;2022-12-07T15:51:41;13.63;;;8.85;;
61685;SDS011;47592;45.904;8.978;2022-12-07T15:54:07;15.32;;;9.68;;
61685;SDS011;47592;45.904;8.978;2022-12-07T15:56:38;15.00;;;9.43;;
61685;SDS011;47592;45.904;8.978;2022-12-07T15:59:03;14.95;;;9.90;;
61685;SDS011;47592;45.904;8.978;2022-12-07T16:01:29;17.67;;;9.70;;
61685;SDS011;47592;45.904;8.978;2022-12-07T16:03:54;18.73;;;10.65;;
61685;SDS011;47592;45.904;8.978;2022-12-07T16:06:22;14.57;;;9.70;;
61685;SDS011;47592;45.904;8.978;2022-12-07T16:08:47;14.48;;;9.90;;
61685;SDS011;47592;45.904;8.978;2022-12-07T16:11:13;16.45;;;9.93;;
61685;SDS011;47592;45.904;8.978;2022-12-07T16:13:39;18.50;;;10.70;;
61685;SDS011;47592;45.904;8.978;2022-12-07T16:16:11;17.55;;;10.93;;
61685;SDS011;47592;45.904;8.978;2022-12-07T16:18:38;16.85;;;11.18;;
61685;SDS011;47592;45.904;8.978;2022-12-07T16:21:04;16.40;;;10.82;;
61685;SDS011;47592;45.904;8.978;2022-12-07T16:23:30;16.52;;;10.30;;
61685;SDS011;47592;45.904;8.978;2022-12-07T16:26:18;20.60;;;10.70;;
61685;SDS011;47592;45.904;8.978;2022-12-07T16:28:43;16.50;;;10.07;;
61685;SDS011;47592;45.904;8.978;2022-12-07T16:31:12;15.23;;;10.25;;
61685;SDS011;47592;45.904;8.978;2022-12-07T16:33:40;17.15;;;10.48;;
61685;SDS011;47592;45.904;8.978;2022-12-07T16:36:06;16.38;;;10.35;;
61685;SDS011;47592;45.904;8.978;2022-12-07T16:38:33;18.17;;;10.75;;
61685;SDS011;47592;45.904;8.978;2022-12-07T16:40:59;16.85;;;10.63;;
61685;SDS011;47592;45.904;8.978;2022-12-07T16:43:24;15.18;;;9.63;;
61685;SDS011;47592;45.904;8.978;2022-12-07T16:45:50;14.40;;;10.20;;
61685;SDS011;47592;45.904;8.978;2022-12-07T16:48:15;15.65;;;10.57;;
61685;SDS011;47592;45.904;8.978;2022-12-07T16:50:41;16.70;;;10.98;;
61685;SDS011;47592;45.904;8.978;2022-12-07T16:53:08;20.05;;;12.52;;
61685;SDS011;47592;45.904;8.978;2022-12-07T16:55:35;20.02;;;12.43;;
61685;SDS011;47592;45.904;8.978;2022-12-07T16:58:04;20.95;;;12.35;;
61685;SDS011;47592;45.904;8.978;2022-12-07T17:00:30;21.75;;;13.63;;
61685;SDS011;47592;45.904;8.978;2022-12-07T17:02:56;23.23;;;16.02;;
61685;SDS011;47592;45.904;8.978;2022-12-07T17:05:21;24.42;;;17.02;;
61685;SDS011;47592;45.904;8.978;2022-12-07T17:07:47;23.05;;;16.35;;
61685;SDS011;47592;45.904;8.978;2022-12-07T17:10:12;26.20;;;16.30;;
61685;SDS011;47592;45.904;8.978;2022-12-07T17:12:38;25.67;;;17.15;;